createdAt,value
2018-05-08T00:02:27.476Z,17.85
2018-05-08T00:04:55.920Z,17.83
2018-05-08T00:07:24.392Z,17.77
2018-05-08T00:09:52.904Z,17.76
2018-05-08T00:12:21.416Z,17.68
2018-05-08T00:14:49.903Z,17.65
2018-05-08T00:17:18.412Z,17.68
2018-05-08T00:19:46.949Z,17.72
2018-05-08T00:22:15.456Z,17.69
2018-05-08T00:24:43.886Z,17.64
2018-05-08T00:27:12.888Z,17.63
2018-05-08T00:29:41.410Z,17.57
2018-05-08T00:32:09.883Z,17.45
2018-05-08T00:34:38.380Z,17.50
2018-05-08T00:37:06.860Z,17.31
2018-05-08T00:39:35.444Z,17.39
2018-05-08T00:42:03.935Z,17.40
2018-05-08T00:44:32.402Z,17.37
2018-05-08T00:47:00.909Z,17.37
2018-05-08T00:49:29.426Z,17.37
2018-05-08T00:51:57.925Z,17.38
2018-05-08T00:54:38.116Z,17.37
2018-05-08T00:57:06.609Z,17.38
2018-05-08T00:59:35.073Z,17.28
2018-05-08T01:02:03.533Z,17.29
2018-05-08T01:04:32.041Z,17.25
2018-05-08T01:07:00.529Z,17.21
2018-05-08T01:09:28.992Z,17.22
2018-05-08T01:11:57.509Z,17.27
2018-05-08T01:14:25.983Z,17.18
2018-05-08T01:16:54.496Z,17.13
2018-05-08T01:19:23.075Z,17.08
2018-05-08T01:21:51.560Z,16.98
2018-05-08T01:24:20.050Z,16.89
2018-05-08T01:26:48.530Z,16.47
2018-05-08T01:29:17.061Z,16.61
2018-05-08T01:31:45.529Z,16.53
2018-05-08T01:34:14.012Z,16.76
2018-05-08T01:36:42.524Z,16.82
2018-05-08T01:39:10.991Z,16.88
2018-05-08T01:41:39.520Z,16.92
2018-05-08T01:44:07.996Z,16.94
2018-05-08T01:46:36.519Z,16.99
2018-05-08T01:49:05.039Z,16.95
2018-05-08T01:51:33.492Z,17.00
2018-05-08T01:54:01.979Z,17.06
2018-05-08T01:56:30.534Z,17.10
2018-05-08T01:58:59.065Z,16.96
2018-05-08T02:01:27.536Z,16.92
2018-05-08T02:03:55.988Z,16.78
2018-05-08T02:06:24.536Z,16.63
2018-05-08T02:08:53.072Z,16.49
2018-05-08T02:11:21.621Z,16.37
2018-05-08T02:13:50.127Z,16.44
2018-05-08T02:16:18.644Z,16.64
2018-05-08T02:18:47.109Z,16.73
2018-05-08T02:21:15.600Z,16.69
2018-05-08T02:23:44.820Z,16.70
2018-05-08T02:26:13.301Z,16.79
2018-05-08T02:28:41.769Z,16.80
2018-05-08T02:31:10.237Z,16.85
2018-05-08T02:33:38.697Z,16.89
2018-05-08T02:36:07.231Z,16.89
2018-05-08T02:38:35.737Z,16.83
2018-05-08T02:41:04.197Z,16.86
2018-05-08T02:43:32.712Z,16.89
2018-05-08T02:46:01.220Z,16.92
2018-05-08T02:48:29.688Z,16.99
2018-05-08T02:50:58.181Z,16.85
2018-05-08T02:53:26.694Z,16.86
2018-05-08T02:55:55.214Z,16.88
2018-05-08T02:58:23.668Z,16.80
2018-05-08T03:00:52.161Z,16.69
2018-05-08T03:03:20.679Z,16.64
2018-05-08T03:05:49.161Z,16.69
2018-05-08T03:08:17.645Z,16.63
2018-05-08T03:10:46.113Z,16.67
2018-05-08T03:13:14.605Z,16.77
2018-05-08T03:15:43.114Z,16.69
2018-05-08T03:18:11.568Z,16.70
2018-05-08T03:20:40.074Z,16.73
2018-05-08T03:23:08.544Z,16.68
2018-05-08T03:25:37.040Z,16.62
2018-05-08T03:28:05.512Z,16.62
2018-05-08T03:30:34.009Z,16.63
2018-05-08T03:33:02.517Z,16.66
2018-05-08T03:35:31.016Z,16.60
2018-05-08T03:37:59.513Z,16.54
2018-05-08T03:40:27.972Z,16.40
2018-05-08T03:42:56.484Z,16.44
2018-05-08T03:45:25.896Z,16.40
2018-05-08T03:47:54.409Z,16.33
2018-05-08T03:50:22.920Z,16.22
2018-05-08T03:52:51.439Z,16.32
2018-05-08T03:55:19.958Z,16.37
2018-05-08T03:57:48.468Z,16.36
2018-05-08T04:00:28.705Z,16.51
2018-05-08T04:03:08.965Z,16.57
2018-05-08T04:05:49.062Z,16.51
2018-05-08T04:08:29.452Z,16.57
2018-05-08T04:10:57.936Z,16.59
2018-05-08T04:13:26.484Z,16.54
2018-05-08T04:15:54.950Z,16.50
2018-05-08T04:18:25.847Z,16.75
2018-05-08T04:20:54.316Z,16.78
2018-05-08T04:23:22.824Z,16.88
2018-05-08T04:25:51.288Z,17.00
2018-05-08T04:28:19.768Z,17.07
2018-05-08T04:30:48.247Z,17.08
2018-05-08T04:33:16.756Z,17.18
2018-05-08T04:35:45.265Z,17.32
2018-05-08T04:38:13.729Z,17.46
2018-05-08T04:40:42.237Z,17.42
2018-05-08T04:43:10.707Z,17.63
2018-05-08T04:45:39.216Z,17.77
2018-05-08T04:48:07.683Z,17.99
2018-05-08T04:50:36.197Z,18.28
2018-05-08T04:53:04.681Z,18.42
2018-05-08T04:55:33.210Z,18.59
2018-05-08T04:58:01.718Z,18.84
2018-05-08T05:00:30.185Z,18.49
2018-05-08T05:02:58.679Z,18.82
2018-05-08T05:05:27.184Z,18.90
2018-05-08T05:07:55.697Z,19.11
2018-05-08T05:10:24.218Z,19.46
2018-05-08T05:12:52.709Z,19.72
2018-05-08T05:15:21.210Z,19.85
2018-05-08T05:17:49.774Z,19.78
2018-05-08T05:20:18.273Z,19.87
2018-05-08T05:22:46.825Z,19.86
2018-05-08T05:25:15.305Z,19.72
2018-05-08T05:27:43.829Z,19.84
2018-05-08T05:30:12.307Z,20.20
2018-05-08T05:32:40.789Z,20.45
2018-05-08T05:35:09.326Z,20.77
2018-05-08T05:37:37.795Z,20.94
2018-05-08T05:40:06.285Z,21.16
2018-05-08T05:42:34.861Z,21.26
2018-05-08T05:45:03.341Z,21.36
2018-05-08T05:47:31.832Z,21.69
2018-05-08T05:50:00.328Z,21.79
2018-05-08T05:52:28.796Z,21.92
2018-05-08T05:54:57.301Z,22.29
2018-05-08T05:57:25.773Z,22.60
2018-05-08T05:59:54.297Z,22.81
2018-05-08T06:02:22.754Z,22.95
2018-05-08T06:04:51.280Z,23.10
2018-05-08T06:07:19.800Z,23.17
2018-05-08T06:09:48.286Z,23.66
2018-05-08T06:12:16.804Z,23.73
2018-05-08T06:14:45.319Z,23.80
2018-05-08T06:17:13.873Z,24.01
2018-05-08T06:19:42.353Z,24.07
2018-05-08T06:22:10.856Z,24.08
2018-05-08T06:24:39.317Z,24.34
2018-05-08T06:27:07.805Z,24.41
2018-05-08T06:29:36.337Z,24.79
2018-05-08T06:32:04.862Z,24.98
2018-05-08T06:34:33.515Z,25.14
2018-05-08T06:37:02.001Z,25.15
2018-05-08T06:39:30.628Z,25.11
2018-05-08T06:41:59.035Z,25.44
2018-05-08T06:44:27.564Z,25.67
2018-05-08T06:46:56.059Z,25.90
2018-05-08T06:49:24.553Z,25.97
2018-05-08T06:51:53.076Z,25.63
2018-05-08T06:54:21.537Z,25.43
2018-05-08T06:56:50.081Z,25.72
2018-05-08T06:59:18.553Z,25.65
2018-05-08T07:01:47.047Z,25.91
2018-05-08T07:04:15.577Z,25.81
2018-05-08T07:06:44.029Z,25.96
2018-05-08T07:09:12.685Z,25.94
2018-05-08T07:11:41.145Z,25.81
2018-05-08T07:14:09.621Z,26.00
2018-05-08T07:16:38.157Z,26.20
2018-05-08T07:19:06.624Z,26.32
2018-05-08T07:21:35.162Z,26.17
2018-05-08T07:24:03.676Z,26.12
2018-05-08T07:26:32.204Z,26.07
2018-05-08T07:29:00.690Z,25.96
2018-05-08T07:31:29.233Z,26.00
2018-05-08T07:33:57.755Z,25.97
2018-05-08T07:36:26.285Z,25.90
2018-05-08T07:38:54.796Z,25.94
2018-05-08T07:41:23.237Z,25.84
2018-05-08T07:43:51.725Z,25.90
2018-05-08T07:46:20.234Z,25.82
2018-05-08T07:48:48.701Z,25.57
2018-05-08T07:51:17.200Z,25.50
2018-05-08T07:53:45.664Z,25.73
2018-05-08T07:56:14.141Z,25.77
2018-05-08T07:58:42.653Z,25.60
2018-05-08T08:01:11.173Z,25.92
2018-05-08T08:03:39.654Z,26.08
2018-05-08T08:06:08.187Z,26.07
2018-05-08T08:08:36.640Z,26.26
2018-05-08T08:11:05.125Z,25.99
2018-05-08T08:13:33.613Z,26.16
2018-05-08T08:16:02.169Z,25.95
2018-05-08T08:18:30.734Z,26.01
2018-05-08T08:20:59.211Z,25.95
2018-05-08T08:23:27.694Z,26.22
2018-05-08T08:25:56.212Z,26.40
2018-05-08T08:28:24.668Z,26.50
2018-05-08T08:30:53.175Z,26.40
2018-05-08T08:33:21.672Z,26.42
2018-05-08T08:35:50.137Z,26.30
2018-05-08T08:38:18.656Z,26.40
2018-05-08T08:40:47.188Z,26.47
2018-05-08T08:43:15.678Z,26.56
2018-05-08T08:45:44.212Z,26.53
2018-05-08T08:48:12.695Z,26.59
2018-05-08T08:50:41.176Z,26.68
2018-05-08T08:53:09.693Z,26.75
2018-05-08T08:55:38.193Z,26.69
2018-05-08T08:58:06.680Z,26.56
2018-05-08T09:00:35.192Z,26.63
2018-05-08T09:03:03.644Z,26.60
2018-05-08T09:05:32.173Z,26.63
2018-05-08T09:08:00.637Z,26.99
2018-05-08T09:10:29.192Z,26.77
2018-05-08T09:12:57.693Z,26.69
2018-05-08T09:15:26.185Z,26.70
2018-05-08T09:17:54.729Z,26.69
2018-05-08T09:20:23.185Z,26.86
2018-05-08T09:22:51.695Z,27.09
2018-05-08T09:25:20.192Z,27.20
2018-05-08T09:27:48.740Z,27.34
2018-05-08T09:30:17.229Z,27.44
2018-05-08T09:32:45.746Z,27.70
2018-05-08T09:35:14.264Z,27.45
2018-05-08T09:37:42.724Z,27.68
2018-05-08T09:40:11.225Z,27.70
2018-05-08T09:42:39.776Z,27.75
2018-05-08T09:45:08.281Z,27.72
2018-05-08T09:47:36.769Z,27.96
2018-05-08T09:50:05.269Z,27.95
2018-05-08T09:52:33.797Z,28.11
2018-05-08T09:55:02.252Z,28.15
2018-05-08T09:57:30.716Z,27.93
2018-05-08T09:59:59.214Z,27.93
2018-05-08T10:02:27.754Z,27.78
2018-05-08T10:04:56.219Z,27.91
2018-05-08T10:07:24.724Z,27.97
2018-05-08T10:09:53.197Z,27.80
2018-05-08T10:12:21.674Z,27.81
2018-05-08T10:14:50.184Z,27.89
2018-05-08T10:17:18.640Z,27.86
2018-05-08T10:19:47.144Z,28.10
2018-05-08T10:22:15.610Z,28.00
2018-05-08T10:24:44.098Z,27.98
2018-05-08T10:27:12.576Z,28.00
2018-05-08T10:29:41.088Z,27.96
2018-05-08T10:32:09.560Z,28.00
2018-05-08T10:34:38.040Z,27.98
2018-05-08T10:37:06.508Z,28.13
2018-05-08T10:39:35.059Z,28.17
2018-05-08T10:42:03.585Z,28.19
2018-05-08T10:44:32.092Z,28.31
2018-05-08T10:47:00.747Z,28.05
2018-05-08T10:49:29.331Z,28.20
2018-05-08T10:51:57.835Z,28.44
2018-05-08T10:54:26.302Z,28.47
2018-05-08T10:56:54.857Z,28.60
2018-05-08T10:59:23.360Z,28.29
2018-05-08T11:01:51.851Z,28.31
2018-05-08T11:04:20.349Z,28.43
2018-05-08T11:06:48.825Z,28.47
2018-05-08T11:09:17.342Z,28.50
2018-05-08T11:11:45.814Z,28.64
2018-05-08T11:14:14.312Z,28.54
2018-05-08T11:16:42.812Z,28.79
2018-05-08T11:19:11.272Z,28.74
2018-05-08T11:21:39.779Z,28.74
2018-05-08T11:24:08.249Z,28.83
2018-05-08T11:26:36.984Z,28.86
2018-05-08T11:29:05.474Z,28.78
2018-05-08T11:31:33.975Z,28.86
2018-05-08T11:34:02.500Z,28.97
2018-05-08T11:36:32.417Z,29.07
2018-05-08T11:39:02.423Z,28.99
2018-05-08T11:41:30.944Z,28.98
2018-05-08T11:43:59.415Z,29.13
2018-05-08T11:46:27.914Z,29.03
2018-05-08T11:48:56.381Z,29.01
2018-05-08T11:51:24.875Z,29.32
2018-05-08T11:53:53.366Z,29.29
2018-05-08T11:56:21.896Z,29.11
2018-05-08T11:58:50.333Z,29.02
2018-05-08T12:01:18.868Z,28.90
2018-05-08T12:03:47.346Z,28.98
2018-05-08T12:06:15.832Z,28.89
2018-05-08T12:08:44.271Z,28.93
2018-05-08T12:11:12.786Z,28.96
2018-05-08T12:13:41.257Z,28.76
2018-05-08T12:16:09.720Z,28.92
2018-05-08T12:18:38.242Z,28.84
2018-05-08T12:21:06.741Z,28.88
2018-05-08T12:23:35.241Z,28.74
2018-05-08T12:26:03.723Z,28.84
2018-05-08T12:28:32.241Z,28.79
2018-05-08T12:31:00.749Z,28.98
2018-05-08T12:33:29.212Z,29.17
2018-05-08T12:35:57.724Z,29.36
2018-05-08T12:38:26.228Z,28.96
2018-05-08T12:40:54.728Z,29.01
2018-05-08T12:43:23.220Z,28.91
2018-05-08T12:45:51.716Z,28.68
2018-05-08T12:48:20.232Z,28.88
2018-05-08T12:50:48.729Z,28.79
2018-05-08T12:53:17.209Z,28.75
2018-05-08T12:55:45.780Z,28.51
2018-05-08T12:58:14.289Z,28.74
2018-05-08T13:00:42.790Z,28.81
2018-05-08T13:03:11.285Z,28.96
2018-05-08T13:05:39.777Z,28.83
2018-05-08T13:08:08.325Z,29.00
2018-05-08T13:10:36.785Z,28.88
2018-05-08T13:13:05.297Z,28.97
2018-05-08T13:15:33.767Z,28.83
2018-05-08T13:18:02.263Z,28.87
2018-05-08T13:20:30.773Z,28.84
2018-05-08T13:22:59.292Z,28.88
2018-05-08T13:25:27.773Z,28.93
2018-05-08T13:27:56.263Z,29.07
2018-05-08T13:30:24.935Z,29.13
2018-05-08T13:32:53.415Z,29.26
2018-05-08T13:35:21.907Z,29.39
2018-05-08T13:37:50.401Z,29.47
2018-05-08T13:40:18.950Z,29.49
2018-05-08T13:42:47.426Z,29.60
2018-05-08T13:45:15.912Z,29.47
2018-05-08T13:47:44.413Z,29.51
2018-05-08T13:50:12.932Z,29.63
2018-05-08T13:52:41.477Z,29.52
2018-05-08T13:55:10.044Z,29.51
2018-05-08T13:57:38.537Z,29.51
2018-05-08T14:00:08.004Z,29.48
2018-05-08T14:02:36.505Z,29.60
2018-05-08T14:05:05.005Z,29.70
2018-05-08T14:07:33.513Z,29.71
2018-05-08T14:10:02.089Z,29.65
2018-05-08T14:12:30.601Z,29.51
2018-05-08T14:14:59.103Z,29.48
2018-05-08T14:17:27.572Z,29.46
2018-05-08T14:19:56.076Z,29.35
2018-05-08T14:22:24.535Z,29.27
2018-05-08T14:24:53.047Z,29.17
2018-05-08T14:27:21.572Z,28.54
2018-05-08T14:29:50.093Z,28.65
2018-05-08T14:32:18.548Z,28.52
2018-05-08T14:34:47.074Z,28.37
2018-05-08T14:37:15.533Z,28.10
2018-05-08T14:39:44.052Z,28.04
2018-05-08T14:42:12.521Z,28.00
2018-05-08T14:44:41.032Z,27.90
2018-05-08T14:47:09.527Z,27.85
2018-05-08T14:49:38.010Z,27.71
2018-05-08T14:52:06.561Z,27.67
2018-05-08T14:54:35.057Z,27.49
2018-05-08T14:57:03.549Z,27.57
2018-05-08T14:59:32.131Z,27.53
2018-05-08T15:02:00.583Z,27.51
2018-05-08T15:04:29.183Z,27.45
2018-05-08T15:06:57.624Z,27.39
2018-05-08T15:09:26.133Z,27.29
2018-05-08T15:11:54.581Z,27.20
2018-05-08T15:14:23.065Z,27.19
2018-05-08T15:16:51.555Z,27.16
2018-05-08T15:19:20.025Z,27.15
2018-05-08T15:21:48.560Z,27.09
2018-05-08T15:24:17.001Z,27.14
2018-05-08T15:26:45.493Z,27.07
2018-05-08T15:29:14.015Z,26.97
2018-05-08T15:31:42.505Z,26.76
2018-05-08T15:34:11.014Z,26.70
2018-05-08T15:36:39.512Z,26.70
2018-05-08T15:39:07.960Z,26.69
2018-05-08T15:41:36.444Z,26.66
2018-05-08T15:44:04.946Z,26.56
2018-05-08T15:46:33.529Z,26.50
2018-05-08T15:49:02.054Z,26.45
2018-05-08T15:51:30.553Z,26.37
2018-05-08T15:53:58.999Z,26.26
2018-05-08T15:56:27.476Z,26.20
2018-05-08T15:58:55.967Z,26.14
2018-05-08T16:01:25.360Z,26.07
2018-05-08T16:03:53.853Z,25.97
2018-05-08T16:06:22.313Z,25.90
2018-05-08T16:08:50.829Z,25.86
2018-05-08T16:11:19.301Z,25.78
2018-05-08T16:13:47.752Z,25.74
2018-05-08T16:16:16.249Z,25.68
2018-05-08T16:18:45.217Z,25.63
2018-05-08T16:21:13.718Z,25.50
2018-05-08T16:23:42.232Z,25.38
2018-05-08T16:26:10.673Z,25.40
2018-05-08T16:28:39.173Z,25.36
2018-05-08T16:31:07.680Z,25.18
2018-05-08T16:33:36.106Z,25.17
2018-05-08T16:36:04.608Z,25.16
2018-05-08T16:38:33.057Z,24.99
2018-05-08T16:41:01.535Z,25.04
2018-05-08T16:43:30.009Z,24.94
2018-05-08T16:45:58.485Z,24.87
2018-05-08T16:48:27.073Z,24.90
2018-05-08T16:50:55.552Z,24.80
2018-05-08T16:53:24.044Z,24.84
2018-05-08T16:55:52.520Z,24.63
2018-05-08T16:58:21.012Z,24.59
2018-05-08T17:00:49.460Z,24.37
2018-05-08T17:03:17.984Z,24.36
2018-05-08T17:05:46.451Z,23.94
2018-05-08T17:08:14.933Z,23.95
2018-05-08T17:10:43.460Z,23.79
2018-05-08T17:13:11.933Z,23.53
2018-05-08T17:15:40.449Z,23.25
2018-05-08T17:18:08.909Z,23.25
2018-05-08T17:20:37.371Z,23.07
2018-05-08T17:23:05.873Z,22.97
2018-05-08T17:25:34.344Z,22.99
2018-05-08T17:28:02.905Z,22.68
2018-05-08T17:30:31.358Z,22.60
2018-05-08T17:32:59.804Z,22.73
2018-05-08T17:35:28.348Z,22.70
2018-05-08T17:37:56.868Z,22.59
2018-05-08T17:40:25.313Z,22.60
2018-05-08T17:42:53.800Z,22.52
2018-05-08T17:45:22.276Z,22.33
2018-05-08T17:47:50.796Z,22.25
2018-05-08T17:50:19.285Z,22.31
2018-05-08T17:52:47.746Z,22.34
2018-05-08T17:55:16.231Z,22.35
2018-05-08T17:57:44.684Z,22.35
2018-05-08T18:00:13.171Z,22.40
2018-05-08T18:02:41.803Z,22.35
2018-05-08T18:05:10.157Z,22.34
2018-05-08T18:07:38.616Z,22.35
2018-05-08T18:10:07.120Z,22.27
2018-05-08T18:12:35.613Z,22.21
2018-05-08T18:15:04.124Z,22.32
2018-05-08T18:17:32.768Z,22.09
2018-05-08T18:20:01.149Z,22.14
2018-05-08T18:22:29.645Z,22.08
2018-05-08T18:24:58.109Z,22.06
2018-05-08T18:27:26.619Z,22.02
2018-05-08T18:29:55.112Z,22.03
2018-05-08T18:32:24.148Z,22.02
2018-05-08T18:34:52.666Z,21.97
2018-05-08T18:37:21.157Z,22.03
2018-05-08T18:39:49.660Z,21.96
2018-05-08T18:42:18.113Z,21.82
2018-05-08T18:44:46.601Z,21.81
2018-05-08T18:47:15.056Z,21.72
2018-05-08T18:49:43.633Z,21.58
2018-05-08T18:52:12.084Z,21.53
2018-05-08T18:54:40.553Z,21.50
2018-05-08T18:57:09.045Z,21.46
2018-05-08T18:59:37.559Z,21.41
2018-05-08T19:02:06.021Z,21.38
2018-05-08T19:04:34.480Z,21.22
2018-05-08T19:07:02.976Z,21.30
2018-05-08T19:09:31.588Z,21.24
2018-05-08T19:12:00.053Z,21.22
2018-05-08T19:14:28.558Z,21.15
2018-05-08T19:16:57.065Z,21.31
2018-05-08T19:19:31.038Z,21.36
2018-05-08T19:21:59.492Z,21.38
2018-05-08T19:24:33.503Z,21.39
2018-05-08T19:27:02.021Z,21.35
2018-05-08T19:29:35.971Z,21.35
2018-05-08T19:32:04.563Z,21.15
2018-05-08T19:34:38.440Z,21.06
2018-05-08T19:37:12.556Z,21.04
2018-05-08T19:39:41.017Z,21.10
2018-05-08T19:42:09.524Z,21.16
2018-05-08T19:44:38.021Z,21.24
2018-05-08T19:47:06.481Z,21.17
2018-05-08T19:49:34.988Z,21.14
2018-05-08T19:52:03.470Z,21.18
2018-05-08T19:54:31.913Z,21.07
2018-05-08T19:57:00.401Z,20.85
2018-05-08T19:59:28.892Z,20.77
2018-05-08T20:01:57.380Z,20.80
2018-05-08T20:04:25.834Z,20.86
2018-05-08T20:06:54.305Z,20.86
2018-05-08T20:09:22.796Z,20.84
2018-05-08T20:11:51.272Z,20.86
2018-05-08T20:14:19.728Z,20.86
2018-05-08T20:16:48.230Z,20.75
2018-05-08T20:19:16.684Z,20.80
2018-05-08T20:21:45.172Z,20.79
2018-05-08T20:24:13.624Z,20.78
2018-05-08T20:26:42.104Z,20.76
2018-05-08T20:29:10.564Z,20.75
2018-05-08T20:31:39.094Z,20.67
2018-05-08T20:34:07.692Z,20.69
2018-05-08T20:36:36.196Z,20.63
2018-05-08T20:39:05.466Z,20.60
2018-05-08T20:41:33.980Z,20.62
2018-05-08T20:44:02.473Z,20.56
2018-05-08T20:46:30.941Z,20.48
2018-05-08T20:48:59.407Z,20.40
2018-05-08T20:51:27.921Z,20.36
2018-05-08T20:53:56.385Z,20.33
2018-05-08T20:56:24.883Z,20.38
2018-05-08T20:58:53.336Z,20.31
2018-05-08T21:01:22.058Z,20.28
2018-05-08T21:03:50.333Z,20.13
2018-05-08T21:06:18.847Z,20.18
2018-05-08T21:08:47.336Z,20.14
2018-05-08T21:11:15.792Z,20.00
2018-05-08T21:13:44.841Z,20.04
2018-05-08T21:16:13.341Z,19.84
2018-05-08T21:18:41.841Z,19.91
2018-05-08T21:21:10.387Z,19.67
2018-05-08T21:23:38.850Z,19.62
2018-05-08T21:26:07.357Z,19.64
2018-05-08T21:28:41.277Z,19.69
2018-05-08T21:31:14.717Z,19.69
2018-05-08T21:33:43.197Z,19.65
2018-05-08T21:36:11.648Z,19.60
2018-05-08T21:38:40.149Z,19.53
2018-05-08T21:41:08.600Z,19.49
2018-05-08T21:43:37.044Z,19.41
2018-05-08T21:46:05.524Z,19.44
2018-05-08T21:48:34.005Z,19.39
2018-05-08T21:51:02.461Z,19.38
2018-05-08T21:53:30.945Z,19.29
2018-05-08T21:55:59.448Z,19.34
2018-05-08T21:58:27.949Z,19.27
2018-05-08T22:00:56.428Z,19.26
2018-05-08T22:03:24.935Z,19.18
2018-05-08T22:05:53.396Z,19.11
2018-05-08T22:08:21.893Z,19.14
2018-05-08T22:10:50.341Z,19.14
2018-05-08T22:13:18.833Z,19.08
2018-05-08T22:15:47.329Z,19.05
2018-05-08T22:18:15.796Z,18.98
2018-05-08T22:20:44.248Z,19.01
2018-05-08T22:23:12.740Z,18.99
2018-05-08T22:25:41.189Z,18.93
2018-05-08T22:28:09.649Z,18.90
2018-05-08T22:30:38.148Z,18.87
2018-05-08T22:33:06.612Z,18.89
2018-05-08T22:35:35.127Z,18.89
2018-05-08T22:38:03.582Z,18.95
2018-05-08T22:40:32.058Z,18.96
2018-05-08T22:43:00.517Z,19.02
2018-05-08T22:45:29.000Z,18.90
2018-05-08T22:47:57.502Z,18.93
2018-05-08T22:50:25.945Z,18.98
2018-05-08T22:52:54.399Z,18.98
2018-05-08T22:55:22.868Z,19.05
2018-05-08T22:57:51.321Z,19.09
2018-05-08T23:00:19.855Z,19.07
2018-05-08T23:02:48.027Z,19.06
2018-05-08T23:05:16.523Z,19.05
2018-05-08T23:07:44.982Z,19.00
2018-05-08T23:10:13.475Z,19.01
2018-05-08T23:12:41.984Z,18.92
2018-05-08T23:15:10.471Z,18.87
2018-05-08T23:17:38.987Z,18.75
2018-05-08T23:20:07.482Z,18.71
2018-05-08T23:22:36.010Z,18.71
2018-05-08T23:25:04.448Z,18.64
2018-05-08T23:27:32.896Z,18.59
2018-05-08T23:30:01.385Z,18.53
2018-05-08T23:32:29.876Z,18.60
2018-05-08T23:34:58.396Z,18.60
2018-05-08T23:37:26.853Z,18.62
2018-05-08T23:39:55.352Z,18.61
2018-05-08T23:42:23.809Z,18.50
2018-05-08T23:44:52.296Z,18.55
2018-05-08T23:47:20.800Z,18.59
2018-05-08T23:49:49.251Z,18.59
2018-05-08T23:52:17.734Z,18.55
2018-05-08T23:54:46.191Z,18.55
2018-05-08T23:57:14.689Z,18.45
2018-05-08T23:59:43.160Z,18.37
